createdAt,value
2022-12-08T00:01:08.000Z,1000.6
2022-12-08T00:02:21.000Z,1000.6
2022-12-08T00:03:32.000Z,1000.5
2022-12-08T00:04:44.000Z,1000.5
2022-12-08T00:05:56.000Z,1000.5
2022-12-08T00:07:08.000Z,1000.5
2022-12-08T00:08:21.000Z,1000.5
2022-12-08T00:09:33.000Z,1000.5
2022-12-08T00:10:45.000Z,1000.5
2022-12-08T00:11:57.000Z,1000.5
2022-12-08T00:13:09.000Z,1000.5
2022-12-08T00:14:21.000Z,1000.5
2022-12-08T00:15:34.000Z,1000.5
2022-12-08T00:16:46.000Z,1000.4
2022-12-08T00:17:58.000Z,1000.4
2022-12-08T00:19:09.000Z,1000.4
2022-12-08T00:20:21.000Z,1000.4
2022-12-08T00:21:34.000Z,1000.4
2022-12-08T00:22:46.000Z,1000.4
2022-12-08T00:25:10.000Z,1000.3
2022-12-08T00:26:22.000Z,1000.3
2022-12-08T00:27:34.000Z,1000.3
2022-12-08T00:28:47.000Z,1000.2
2022-12-08T00:29:59.000Z,1000.3
2022-12-08T00:30:55.328Z,1000.4
2022-12-08T00:31:11.000Z,1000.2
2022-12-08T00:32:23.000Z,1000.3
2022-12-08T00:33:35.000Z,1000.3
2022-12-08T00:34:47.000Z,1000.3
2022-12-08T00:35:59.000Z,1000.2
2022-12-08T00:37:11.000Z,1000.2
2022-12-08T00:38:23.000Z,1000.3
2022-12-08T00:39:35.000Z,1000.2
2022-12-08T00:40:48.000Z,1000.3
2022-12-08T00:42:00.000Z,1000.3
2022-12-08T00:43:12.000Z,1000.3
2022-12-08T00:44:24.000Z,1000.3
2022-12-08T00:45:36.000Z,1000.2
2022-12-08T00:46:48.000Z,1000.2
2022-12-08T00:48:01.000Z,1000.2
2022-12-08T00:49:13.000Z,1000.2
2022-12-08T00:50:25.000Z,1000.3
2022-12-08T00:51:36.000Z,1000.3
2022-12-08T00:52:48.000Z,1000.3
2022-12-08T00:54:01.000Z,1000.3
2022-12-08T00:55:13.000Z,1000.3
2022-12-08T00:56:25.000Z,1000.3
2022-12-08T00:57:37.000Z,1000.2
2022-12-08T00:58:49.000Z,1000.3
2022-12-08T01:00:02.000Z,1000.3
2022-12-08T01:01:14.000Z,1000.3
2022-12-08T01:02:26.000Z,1000.3
2022-12-08T01:03:38.000Z,1000.3
2022-12-08T01:04:50.000Z,1000.2
2022-12-08T01:06:02.000Z,1000.3
2022-12-08T01:07:14.000Z,1000.3
2022-12-08T01:08:26.000Z,1000.3
2022-12-08T01:09:38.000Z,1000.3
2022-12-08T01:10:50.000Z,1000.3
2022-12-08T01:12:02.000Z,1000.3
2022-12-08T01:13:15.000Z,1000.3
2022-12-08T01:14:27.000Z,1000.3
2022-12-08T01:15:39.000Z,1000.3
2022-12-08T01:16:51.000Z,1000.3
2022-12-08T01:18:03.000Z,1000.3
2022-12-08T01:19:16.000Z,1000.3
2022-12-08T01:20:28.000Z,1000.3
2022-12-08T01:21:40.000Z,1000.3
2022-12-08T01:22:51.000Z,1000.3
2022-12-08T01:24:03.000Z,1000.3
2022-12-08T01:25:15.000Z,1000.3
2022-12-08T01:26:28.000Z,1000.2
2022-12-08T01:27:40.000Z,1000.2
2022-12-08T01:30:04.000Z,1000.1
2022-12-08T01:31:16.000Z,1000.1
2022-12-08T01:32:29.000Z,1000.1
2022-12-08T01:33:41.000Z,1000.2
2022-12-08T01:34:53.000Z,1000.1
2022-12-08T01:35:49.437Z,1000.2
2022-12-08T01:37:17.000Z,1000.1
2022-12-08T01:38:29.000Z,1000.1
2022-12-08T01:39:41.000Z,1000.1
2022-12-08T01:40:53.000Z,1000.1
2022-12-08T01:42:05.000Z,1000.1
2022-12-08T01:43:02.565Z,1000.1
2022-12-08T01:43:17.000Z,1000.1
2022-12-08T01:44:29.000Z,1000.1
2022-12-08T01:45:42.000Z,1000.1
2022-12-08T01:46:54.000Z,1000.1
2022-12-08T01:48:06.000Z,1000.1
2022-12-08T01:49:18.000Z,1000.1
2022-12-08T01:50:30.000Z,1000.1
2022-12-08T01:51:43.000Z,1000.1
2022-12-08T01:52:55.000Z,1000.1
2022-12-08T01:54:06.000Z,1000.1
2022-12-08T01:55:18.000Z,1000.1
2022-12-08T01:56:30.000Z,1000.1
2022-12-08T01:57:43.000Z,1000
2022-12-08T01:58:55.000Z,1000.1
2022-12-08T02:00:07.000Z,1000
2022-12-08T02:02:31.000Z,1000
2022-12-08T02:03:43.000Z,1000
2022-12-08T02:04:56.000Z,1000
2022-12-08T02:06:08.000Z,1000
2022-12-08T02:07:20.000Z,1000
2022-12-08T02:08:16.509Z,1000
2022-12-08T02:08:32.000Z,1000
2022-12-08T02:09:43.000Z,1000
2022-12-08T02:10:56.000Z,1000
2022-12-08T02:12:08.000Z,999.9
2022-12-08T02:13:20.000Z,999.9
2022-12-08T02:14:32.000Z,999.8
2022-12-08T02:15:44.000Z,999.9
2022-12-08T02:16:56.000Z,999.8
2022-12-08T02:18:09.000Z,999.8
2022-12-08T02:19:21.000Z,999.8
2022-12-08T02:20:33.000Z,999.8
2022-12-08T02:21:45.000Z,999.8
2022-12-08T02:22:57.000Z,999.7
2022-12-08T02:24:10.000Z,999.8
2022-12-08T02:26:33.000Z,999.7
2022-12-08T02:27:45.000Z,999.7
2022-12-08T02:28:57.000Z,999.7
2022-12-08T02:30:09.000Z,999.8
2022-12-08T02:31:21.000Z,999.8
2022-12-08T02:32:18.255Z,999.7
2022-12-08T02:32:33.000Z,999.7
2022-12-08T02:33:45.000Z,999.7
2022-12-08T02:34:57.000Z,999.7
2022-12-08T02:36:09.000Z,999.8
2022-12-08T02:37:22.000Z,999.7
2022-12-08T02:38:34.000Z,999.6
2022-12-08T02:39:46.000Z,999.7
2022-12-08T02:40:58.000Z,999.6
2022-12-08T02:42:10.000Z,999.7
2022-12-08T02:43:23.000Z,999.6
2022-12-08T02:44:35.000Z,999.7
2022-12-08T02:45:46.000Z,999.7
2022-12-08T02:46:58.000Z,999.6
2022-12-08T02:48:10.000Z,999.7
2022-12-08T02:49:23.000Z,999.7
2022-12-08T02:50:35.000Z,999.6
2022-12-08T02:51:47.000Z,999.7
2022-12-08T02:52:59.000Z,999.7
2022-12-08T02:54:11.000Z,999.7
2022-12-08T02:55:23.000Z,999.7
2022-12-08T02:56:36.000Z,999.7
2022-12-08T02:57:48.000Z,999.7
2022-12-08T02:59:00.000Z,999.6
2022-12-08T03:00:12.000Z,999.6
2022-12-08T03:01:23.000Z,999.6
2022-12-08T03:02:36.000Z,999.5
2022-12-08T03:03:48.000Z,999.6
2022-12-08T03:05:00.000Z,999.5
2022-12-08T03:06:12.000Z,999.5
2022-12-08T03:07:24.000Z,999.5
2022-12-08T03:08:37.000Z,999.6
2022-12-08T03:09:49.000Z,999.5
2022-12-08T03:11:01.000Z,999.6
2022-12-08T03:12:13.000Z,999.5
2022-12-08T03:13:25.000Z,999.5
2022-12-08T03:14:37.000Z,999.5
2022-12-08T03:15:50.000Z,999.5
2022-12-08T03:17:01.000Z,999.5
2022-12-08T03:18:13.000Z,999.4
2022-12-08T03:19:25.000Z,999.5
2022-12-08T03:20:37.000Z,999.5
2022-12-08T03:21:50.000Z,999.4
2022-12-08T03:23:02.000Z,999.4
2022-12-08T03:24:14.000Z,999.4
2022-12-08T03:25:26.000Z,999.3
2022-12-08T03:26:38.000Z,999.3
2022-12-08T03:27:51.000Z,999.3
2022-12-08T03:29:03.000Z,999.3
2022-12-08T03:30:15.000Z,999.3
2022-12-08T03:31:27.000Z,999.3
2022-12-08T03:32:38.000Z,999.2
2022-12-08T03:33:50.000Z,999.3
2022-12-08T03:35:03.000Z,999.3
2022-12-08T03:36:15.000Z,999.3
2022-12-08T03:37:27.000Z,999.2
2022-12-08T03:38:39.000Z,999.2
2022-12-08T03:39:51.000Z,999.2
2022-12-08T03:41:04.000Z,999.2
2022-12-08T03:42:16.000Z,999.2
2022-12-08T03:43:28.000Z,999.2
2022-12-08T03:44:40.000Z,999.1
2022-12-08T03:45:52.000Z,999.1
2022-12-08T03:47:05.000Z,999.1
2022-12-08T03:48:16.000Z,999.1
2022-12-08T03:49:28.000Z,999.1
2022-12-08T03:50:40.000Z,999
2022-12-08T03:51:52.000Z,999.1
2022-12-08T03:53:04.000Z,999
2022-12-08T03:54:17.000Z,999
2022-12-08T03:55:29.000Z,999
2022-12-08T03:56:41.000Z,999
2022-12-08T03:57:53.000Z,999
2022-12-08T03:59:05.000Z,999
2022-12-08T04:00:18.000Z,998.9
2022-12-08T04:01:30.000Z,998.9
2022-12-08T04:02:42.000Z,998.9
2022-12-08T04:03:54.000Z,998.9
2022-12-08T04:05:05.000Z,998.9
2022-12-08T04:06:18.000Z,998.9
2022-12-08T04:07:30.000Z,998.9
2022-12-08T04:08:42.000Z,998.8
2022-12-08T04:09:54.000Z,998.8
2022-12-08T04:11:06.000Z,998.8
2022-12-08T04:12:18.000Z,998.9
2022-12-08T04:13:31.000Z,998.9
2022-12-08T04:14:43.000Z,998.8
2022-12-08T04:15:55.000Z,998.9
2022-12-08T04:17:07.000Z,998.9
2022-12-08T04:18:19.000Z,998.8
2022-12-08T04:19:32.000Z,998.8
2022-12-08T04:20:43.000Z,998.8
2022-12-08T04:21:55.000Z,998.8
2022-12-08T04:23:07.000Z,998.8
2022-12-08T04:24:19.000Z,998.8
2022-12-08T04:25:32.000Z,998.8
2022-12-08T04:26:44.000Z,998.8
2022-12-08T04:27:56.000Z,998.8
2022-12-08T04:29:08.000Z,998.8
2022-12-08T04:30:20.000Z,998.8
2022-12-08T04:31:32.000Z,998.8
2022-12-08T04:32:45.000Z,998.8
2022-12-08T04:33:57.000Z,998.8
2022-12-08T04:35:09.000Z,998.8
2022-12-08T04:36:20.000Z,998.8
2022-12-08T04:37:32.000Z,998.8
2022-12-08T04:38:45.000Z,998.8
2022-12-08T04:39:57.000Z,998.8
2022-12-08T04:41:09.000Z,998.8
2022-12-08T04:42:21.000Z,998.8
2022-12-08T04:43:33.000Z,998.8
2022-12-08T04:44:45.000Z,998.9
2022-12-08T04:45:58.000Z,998.9
2022-12-08T04:47:10.000Z,998.9
2022-12-08T04:48:22.000Z,998.8
2022-12-08T04:49:34.000Z,998.9
2022-12-08T04:50:46.000Z,998.8
2022-12-08T04:53:10.000Z,998.9
2022-12-08T04:54:22.000Z,998.9
2022-12-08T04:55:34.000Z,998.9
2022-12-08T04:56:46.000Z,998.9
2022-12-08T04:57:59.000Z,999
2022-12-08T04:58:56.147Z,998.9
2022-12-08T04:59:11.000Z,999
2022-12-08T05:00:23.000Z,999
2022-12-08T05:01:35.000Z,998.9
2022-12-08T05:02:47.000Z,998.9
2022-12-08T05:03:59.000Z,999
2022-12-08T05:05:12.000Z,998.9
2022-12-08T05:06:24.000Z,999
2022-12-08T05:07:36.000Z,998.9
2022-12-08T05:08:47.000Z,998.9
2022-12-08T05:09:59.000Z,998.9
2022-12-08T05:11:12.000Z,998.9
2022-12-08T05:12:24.000Z,998.9
2022-12-08T05:13:36.000Z,998.9
2022-12-08T05:14:48.000Z,998.8
2022-12-08T05:16:00.000Z,998.8
2022-12-08T05:17:13.000Z,998.8
2022-12-08T05:18:25.000Z,998.9
2022-12-08T05:19:37.000Z,998.8
2022-12-08T05:20:49.000Z,998.8
2022-12-08T05:22:01.000Z,998.8
2022-12-08T05:23:13.000Z,998.7
2022-12-08T05:24:25.000Z,998.8
2022-12-08T05:25:37.000Z,998.8
2022-12-08T05:26:49.000Z,998.9
2022-12-08T05:28:01.000Z,998.9
2022-12-08T05:29:13.000Z,998.8
2022-12-08T05:30:26.000Z,998.8
2022-12-08T05:31:38.000Z,998.8
2022-12-08T05:32:50.000Z,998.8
2022-12-08T05:34:02.000Z,998.8
2022-12-08T05:35:14.000Z,998.8
2022-12-08T05:36:27.000Z,998.8
2022-12-08T05:37:39.000Z,998.8
2022-12-08T05:38:51.000Z,998.8
2022-12-08T05:40:02.000Z,998.8
2022-12-08T05:41:14.000Z,998.8
2022-12-08T05:42:26.000Z,998.8
2022-12-08T05:43:39.000Z,998.8
2022-12-08T05:44:51.000Z,998.8
2022-12-08T05:46:03.000Z,998.7
2022-12-08T05:47:15.000Z,998.7
2022-12-08T05:48:27.000Z,998.8
2022-12-08T05:49:40.000Z,998.7
2022-12-08T05:50:52.000Z,998.7
2022-12-08T05:52:04.000Z,998.7
2022-12-08T05:53:16.000Z,998.7
2022-12-08T05:54:28.000Z,998.7
2022-12-08T05:56:52.000Z,998.6
2022-12-08T05:58:04.000Z,998.6
2022-12-08T05:59:16.000Z,998.6
2022-12-08T06:00:28.000Z,998.6
2022-12-08T06:01:40.000Z,998.7
2022-12-08T06:02:37.115Z,998.6
2022-12-08T06:02:53.000Z,998.6
2022-12-08T06:04:05.000Z,998.7
2022-12-08T06:05:17.000Z,998.7
2022-12-08T06:06:29.000Z,998.7
2022-12-08T06:07:41.000Z,998.6
2022-12-08T06:08:54.000Z,998.6
2022-12-08T06:10:06.000Z,998.6
2022-12-08T06:11:17.000Z,998.7
2022-12-08T06:12:29.000Z,998.6
2022-12-08T06:13:41.000Z,998.7
2022-12-08T06:14:54.000Z,998.7
2022-12-08T06:16:06.000Z,998.7
2022-12-08T06:17:18.000Z,998.7
2022-12-08T06:18:30.000Z,998.8
2022-12-08T06:19:42.000Z,998.7
2022-12-08T06:20:54.000Z,998.7
2022-12-08T06:22:07.000Z,998.7
2022-12-08T06:23:19.000Z,998.7
2022-12-08T06:24:31.000Z,998.7
2022-12-08T06:25:43.000Z,998.7
2022-12-08T06:26:55.000Z,998.7
2022-12-08T06:28:07.000Z,998.6
2022-12-08T06:29:19.000Z,998.7
2022-12-08T06:30:31.000Z,998.6
2022-12-08T06:31:42.000Z,998.6
2022-12-08T06:32:54.000Z,998.6
2022-12-08T06:34:07.000Z,998.7
2022-12-08T06:35:19.000Z,998.6
2022-12-08T06:36:31.000Z,998.6
2022-12-08T06:37:43.000Z,998.6
2022-12-08T06:38:55.000Z,998.6
2022-12-08T06:40:07.000Z,998.7
2022-12-08T06:41:20.000Z,998.7
2022-12-08T06:42:32.000Z,998.7
2022-12-08T06:43:44.000Z,998.7
2022-12-08T06:44:56.000Z,998.7
2022-12-08T06:46:08.000Z,998.7
2022-12-08T06:47:20.000Z,998.7
2022-12-08T06:48:32.000Z,998.7
2022-12-08T06:49:44.000Z,998.7
2022-12-08T06:50:56.000Z,998.7
2022-12-08T06:52:08.000Z,998.7
2022-12-08T06:53:21.000Z,998.7
2022-12-08T06:54:33.000Z,998.7
2022-12-08T06:55:45.000Z,998.8
2022-12-08T06:56:57.000Z,998.8
2022-12-08T06:58:09.000Z,998.8
2022-12-08T06:59:21.000Z,998.8
2022-12-08T07:00:34.000Z,998.7
2022-12-08T07:01:46.000Z,998.8
2022-12-08T07:02:57.000Z,998.8
2022-12-08T07:04:09.000Z,998.8
2022-12-08T07:05:21.000Z,998.7
2022-12-08T07:06:34.000Z,998.8
2022-12-08T07:07:46.000Z,998.8
2022-12-08T07:08:58.000Z,998.7
2022-12-08T07:10:10.000Z,998.7
2022-12-08T07:11:22.000Z,998.7
2022-12-08T07:12:34.000Z,998.7
2022-12-08T07:13:47.000Z,998.7
2022-12-08T07:14:59.000Z,998.6
2022-12-08T07:16:11.000Z,998.6
2022-12-08T07:17:23.000Z,998.7
2022-12-08T07:18:34.000Z,998.7
2022-12-08T07:19:47.000Z,998.7
2022-12-08T07:20:59.000Z,998.6
2022-12-08T07:22:11.000Z,998.7
2022-12-08T07:23:23.000Z,998.6
2022-12-08T07:24:35.000Z,998.6
2022-12-08T07:25:48.000Z,998.6
2022-12-08T07:27:00.000Z,998.6
2022-12-08T07:28:12.000Z,998.6
2022-12-08T07:29:24.000Z,998.6
2022-12-08T07:30:36.000Z,998.6
2022-12-08T07:31:48.000Z,998.6
2022-12-08T07:33:01.000Z,998.7
2022-12-08T07:34:12.000Z,998.6
2022-12-08T07:35:24.000Z,998.6
2022-12-08T07:36:36.000Z,998.7
2022-12-08T07:37:48.000Z,998.6
2022-12-08T07:39:01.000Z,998.6
2022-12-08T07:40:13.000Z,998.6
2022-12-08T07:41:25.000Z,998.6
2022-12-08T07:42:37.000Z,998.6
2022-12-08T07:43:49.000Z,998.6
2022-12-08T07:45:02.000Z,998.6
2022-12-08T07:46:14.000Z,998.6
2022-12-08T07:47:26.000Z,998.6
2022-12-08T07:48:38.000Z,998.6
2022-12-08T07:49:49.000Z,998.6
2022-12-08T07:51:01.000Z,998.6
2022-12-08T07:52:14.000Z,998.6
2022-12-08T07:53:26.000Z,998.7
2022-12-08T07:54:38.000Z,998.6
2022-12-08T07:55:50.000Z,998.7
2022-12-08T07:57:02.000Z,998.7
2022-12-08T07:58:15.000Z,998.7
2022-12-08T07:59:27.000Z,998.7
2022-12-08T08:00:39.000Z,998.7
2022-12-08T08:01:51.000Z,998.7
2022-12-08T08:03:03.000Z,998.6
2022-12-08T08:04:16.000Z,998.6
2022-12-08T08:05:27.000Z,998.6
2022-12-08T08:06:39.000Z,998.6
2022-12-08T08:07:51.000Z,998.6
2022-12-08T08:09:03.000Z,998.6
2022-12-08T08:10:15.000Z,998.6
2022-12-08T08:11:28.000Z,998.6
2022-12-08T08:12:40.000Z,998.6
2022-12-08T08:13:52.000Z,998.6
2022-12-08T08:15:04.000Z,998.6
2022-12-08T08:16:16.000Z,998.6
2022-12-08T08:17:29.000Z,998.6
2022-12-08T08:18:41.000Z,998.6
2022-12-08T08:21:04.000Z,998.5
2022-12-08T08:22:16.000Z,998.6
2022-12-08T08:23:29.000Z,998.6
2022-12-08T08:24:41.000Z,998.5
2022-12-08T08:25:53.000Z,998.6
2022-12-08T08:26:50.631Z,998.5
2022-12-08T08:27:05.000Z,998.6
2022-12-08T08:28:17.000Z,998.6
2022-12-08T08:29:29.000Z,998.6
2022-12-08T08:30:42.000Z,998.6
2022-12-08T08:31:54.000Z,998.6
2022-12-08T08:33:06.000Z,998.5
2022-12-08T08:34:18.000Z,998.6
2022-12-08T08:35:30.000Z,998.5
2022-12-08T08:36:42.000Z,998.5
2022-12-08T08:37:54.000Z,998.6
2022-12-08T08:39:06.000Z,998.6
2022-12-08T08:40:18.000Z,998.5
2022-12-08T08:41:30.000Z,998.6
2022-12-08T08:42:42.000Z,998.6
2022-12-08T08:43:55.000Z,998.6
2022-12-08T08:45:07.000Z,998.5
2022-12-08T08:46:19.000Z,998.5
2022-12-08T08:47:31.000Z,998.6
2022-12-08T08:48:43.000Z,998.5
2022-12-08T08:49:56.000Z,998.5
2022-12-08T08:51:08.000Z,998.5
2022-12-08T08:52:19.000Z,998.5
2022-12-08T08:53:31.000Z,998.5
2022-12-08T08:54:43.000Z,998.4
2022-12-08T08:57:08.000Z,998.5
2022-12-08T08:58:20.000Z,998.5
2022-12-08T08:59:32.000Z,998.4
2022-12-08T09:00:44.000Z,998.4
2022-12-08T09:01:56.000Z,998.6
2022-12-08T09:02:53.220Z,998.5
2022-12-08T09:03:09.000Z,998.5
2022-12-08T09:04:21.000Z,998.5
2022-12-08T09:05:33.000Z,998.5
2022-12-08T09:06:45.000Z,998.5
2022-12-08T09:07:56.000Z,998.5
2022-12-08T09:09:09.000Z,998.5
2022-12-08T09:10:21.000Z,998.5
2022-12-08T09:11:33.000Z,998.5
2022-12-08T09:12:45.000Z,998.5
2022-12-08T09:13:57.000Z,998.5
2022-12-08T09:15:09.000Z,998.5
2022-12-08T09:16:22.000Z,998.5
2022-12-08T09:17:34.000Z,998.5
2022-12-08T09:18:46.000Z,998.5
2022-12-08T09:19:58.000Z,998.5
2022-12-08T09:21:10.000Z,998.5
2022-12-08T09:22:23.000Z,998.5
2022-12-08T09:23:34.000Z,998.5
2022-12-08T09:24:46.000Z,998.5
2022-12-08T09:25:58.000Z,998.4
2022-12-08T09:27:10.000Z,998.4
2022-12-08T09:28:23.000Z,998.5
2022-12-08T09:29:35.000Z,998.4
2022-12-08T09:30:47.000Z,998.3
2022-12-08T09:31:59.000Z,998.4
2022-12-08T09:33:11.000Z,998.3
2022-12-08T09:34:23.000Z,998.3
2022-12-08T09:35:36.000Z,998.2
2022-12-08T09:36:48.000Z,998.2
2022-12-08T09:38:00.000Z,998.3
2022-12-08T09:39:11.000Z,998.2
2022-12-08T09:40:23.000Z,998.2
2022-12-08T09:41:36.000Z,998.2
2022-12-08T09:44:00.000Z,998.2
2022-12-08T09:45:12.000Z,998.2
2022-12-08T09:46:24.000Z,998.2
2022-12-08T09:47:37.000Z,998.2
2022-12-08T09:48:49.000Z,998.2
2022-12-08T09:49:45.474Z,998.2
2022-12-08T09:50:01.000Z,998.1
2022-12-08T09:51:13.000Z,998.1
2022-12-08T09:52:25.000Z,998.1
2022-12-08T09:53:37.000Z,998.1
2022-12-08T09:54:49.000Z,998
2022-12-08T09:57:13.000Z,998
2022-12-08T09:58:25.000Z,998
2022-12-08T09:59:37.000Z,998
2022-12-08T10:00:50.000Z,997.9
2022-12-08T10:02:02.000Z,998
2022-12-08T10:02:58.537Z,998
2022-12-08T10:03:14.000Z,998
2022-12-08T10:04:26.000Z,997.9
2022-12-08T10:05:38.000Z,997.9
2022-12-08T10:06:50.000Z,997.9
2022-12-08T10:09:15.000Z,997.9
2022-12-08T10:10:26.000Z,997.9
2022-12-08T10:11:38.000Z,997.8
2022-12-08T10:12:50.000Z,997.8
2022-12-08T10:14:03.000Z,997.8
2022-12-08T10:15:00.391Z,997.9
2022-12-08T10:15:15.000Z,997.8
2022-12-08T10:16:27.000Z,997.8
2022-12-08T10:17:39.000Z,997.8
2022-12-08T10:18:51.000Z,997.8
2022-12-08T10:20:04.000Z,997.8
2022-12-08T10:21:16.000Z,997.8
2022-12-08T10:22:28.000Z,997.8
2022-12-08T10:23:40.000Z,997.7
2022-12-08T10:24:52.000Z,997.8
2022-12-08T10:26:03.000Z,997.7
2022-12-08T10:27:16.000Z,997.7
2022-12-08T10:28:28.000Z,997.8
2022-12-08T10:29:40.000Z,997.8
2022-12-08T10:30:52.000Z,997.7
2022-12-08T10:32:04.000Z,997.7
2022-12-08T10:33:16.000Z,997.8
2022-12-08T10:34:28.000Z,997.7
2022-12-08T10:35:40.000Z,997.7
2022-12-08T10:36:52.000Z,997.7
2022-12-08T10:38:04.000Z,997.7
2022-12-08T10:39:16.000Z,997.7
2022-12-08T10:40:29.000Z,997.7
2022-12-08T10:41:41.000Z,997.7
2022-12-08T10:42:53.000Z,997.7
2022-12-08T10:44:05.000Z,997.7
2022-12-08T10:45:17.000Z,997.6
2022-12-08T10:46:30.000Z,997.6
2022-12-08T10:47:42.000Z,997.6
2022-12-08T10:48:53.000Z,997.6
2022-12-08T10:50:05.000Z,997.7
2022-12-08T10:51:17.000Z,997.6
2022-12-08T10:52:30.000Z,997.6
2022-12-08T10:53:42.000Z,997.6
2022-12-08T10:54:54.000Z,997.6
2022-12-08T10:56:06.000Z,997.6
2022-12-08T10:57:18.000Z,997.6
2022-12-08T10:58:30.000Z,997.6
2022-12-08T10:59:43.000Z,997.5
2022-12-08T11:00:55.000Z,997.5
2022-12-08T11:02:07.000Z,997.5
2022-12-08T11:03:19.000Z,997.5
2022-12-08T11:04:30.000Z,997.5
2022-12-08T11:05:43.000Z,997.4
2022-12-08T11:06:55.000Z,997.5
2022-12-08T11:08:07.000Z,997.5
2022-12-08T11:09:19.000Z,997.5
2022-12-08T11:10:31.000Z,997.4
2022-12-08T11:11:44.000Z,997.5
2022-12-08T11:12:56.000Z,997.5
2022-12-08T11:14:08.000Z,997.5
2022-12-08T11:15:20.000Z,997.4
2022-12-08T11:16:32.000Z,997.4
2022-12-08T11:17:44.000Z,997.5
2022-12-08T11:18:57.000Z,997.5
2022-12-08T11:20:09.000Z,997.4
2022-12-08T11:21:20.000Z,997.3
2022-12-08T11:22:32.000Z,997.4
2022-12-08T11:23:44.000Z,997.4
2022-12-08T11:24:57.000Z,997.3
2022-12-08T11:26:09.000Z,997.3
2022-12-08T11:27:21.000Z,997.3
2022-12-08T11:28:33.000Z,997.3
2022-12-08T11:29:45.000Z,997.3
2022-12-08T11:30:57.000Z,997.3
2022-12-08T11:32:10.000Z,997.3
2022-12-08T11:33:22.000Z,997.3
2022-12-08T11:34:34.000Z,997.3
2022-12-08T11:35:46.000Z,997.2
2022-12-08T11:36:57.000Z,997.2
2022-12-08T11:38:10.000Z,997.2
2022-12-08T11:39:22.000Z,997.2
2022-12-08T11:40:34.000Z,997.2
2022-12-08T11:41:46.000Z,997.2
2022-12-08T11:42:58.000Z,997.2
2022-12-08T11:44:11.000Z,997.2
2022-12-08T11:45:23.000Z,997.2
2022-12-08T11:46:35.000Z,997.2
2022-12-08T11:47:47.000Z,997.2
2022-12-08T11:48:59.000Z,997.2
2022-12-08T11:50:11.000Z,997.2
2022-12-08T11:51:24.000Z,997.1
2022-12-08T11:52:35.000Z,997.2
2022-12-08T11:53:47.000Z,997.2
2022-12-08T11:54:59.000Z,997.3
2022-12-08T11:56:11.000Z,997.2
2022-12-08T11:57:24.000Z,997.3
2022-12-08T11:58:36.000Z,997.3
2022-12-08T11:59:48.000Z,997.3
2022-12-08T12:01:00.000Z,997.2
2022-12-08T12:03:24.000Z,997.2
2022-12-08T12:04:37.000Z,997.2
2022-12-08T12:05:49.000Z,997.3
2022-12-08T12:07:01.000Z,997.2
2022-12-08T12:08:12.000Z,997.2
2022-12-08T12:09:10.099Z,997.2
2022-12-08T12:09:24.000Z,997.2
2022-12-08T12:10:37.000Z,997.3
2022-12-08T12:11:49.000Z,997.3
2022-12-08T12:13:01.000Z,997.2
2022-12-08T12:14:13.000Z,997.2
2022-12-08T12:15:25.000Z,997.2
2022-12-08T12:16:38.000Z,997.2
2022-12-08T12:17:50.000Z,997.3
2022-12-08T12:19:02.000Z,997.2
2022-12-08T12:20:14.000Z,997.2
2022-12-08T12:21:26.000Z,997.1
2022-12-08T12:22:38.000Z,997.1
2022-12-08T12:23:50.000Z,997.1
2022-12-08T12:26:14.000Z,997.2
2022-12-08T12:27:26.000Z,997.2
2022-12-08T12:28:38.000Z,997.2
2022-12-08T12:29:51.000Z,997.2
2022-12-08T12:31:03.000Z,997.1
2022-12-08T12:31:59.000Z,997.2
2022-12-08T12:33:27.000Z,997.1
2022-12-08T12:34:39.000Z,997.2
2022-12-08T12:35:51.000Z,997.1
2022-12-08T12:37:04.000Z,997.1
2022-12-08T12:39:12.753Z,997.1
2022-12-08T12:39:27.000Z,997.1
2022-12-08T12:40:39.000Z,997.1
2022-12-08T12:41:51.000Z,997.1
2022-12-08T12:43:04.000Z,997.2
2022-12-08T12:44:16.000Z,997.1
2022-12-08T12:45:13.687Z,997.1
2022-12-08T12:45:28.000Z,997.1
2022-12-08T12:46:40.000Z,997.1
2022-12-08T12:47:52.000Z,997.1
2022-12-08T12:49:05.000Z,997.2
2022-12-08T12:50:17.000Z,997.1
2022-12-08T12:51:29.000Z,997.1
2022-12-08T12:52:41.000Z,997.1
2022-12-08T12:53:53.000Z,997.1
2022-12-08T12:55:04.000Z,997.1
2022-12-08T12:56:17.000Z,997.1
2022-12-08T12:57:29.000Z,997.1
2022-12-08T12:58:41.000Z,997.1
2022-12-08T12:59:53.000Z,997.1
2022-12-08T13:01:05.000Z,997.1
2022-12-08T13:02:18.000Z,997.1
2022-12-08T13:03:30.000Z,997.1
2022-12-08T13:04:42.000Z,997
2022-12-08T13:05:54.000Z,997.1
2022-12-08T13:07:06.000Z,997.1
2022-12-08T13:08:19.000Z,997
2022-12-08T13:09:31.000Z,997.1
2022-12-08T13:10:42.000Z,997.1
2022-12-08T13:11:54.000Z,997
2022-12-08T13:13:06.000Z,997
2022-12-08T13:14:18.000Z,997
2022-12-08T13:15:31.000Z,997
2022-12-08T13:16:43.000Z,997
2022-12-08T13:17:55.000Z,997
2022-12-08T13:19:07.000Z,997
2022-12-08T13:20:19.000Z,997
2022-12-08T13:21:32.000Z,997
2022-12-08T13:22:44.000Z,996.9
2022-12-08T13:23:56.000Z,997
2022-12-08T13:25:08.000Z,996.9
2022-12-08T13:26:20.000Z,996.9
2022-12-08T13:27:31.000Z,997
2022-12-08T13:28:44.000Z,996.9
2022-12-08T13:29:56.000Z,996.9
2022-12-08T13:31:08.000Z,997
2022-12-08T13:32:20.000Z,997
2022-12-08T13:33:32.000Z,996.9
2022-12-08T13:34:45.000Z,996.9
2022-12-08T13:35:57.000Z,996.9
2022-12-08T13:37:09.000Z,996.9
2022-12-08T13:38:21.000Z,996.9
2022-12-08T13:39:33.000Z,996.9
2022-12-08T13:40:46.000Z,996.9
2022-12-08T13:41:58.000Z,996.9
2022-12-08T13:43:09.000Z,997
2022-12-08T13:44:21.000Z,997
2022-12-08T13:45:33.000Z,997
2022-12-08T13:46:45.000Z,996.9
2022-12-08T13:47:58.000Z,997
2022-12-08T13:50:22.000Z,997
2022-12-08T13:51:34.000Z,997
2022-12-08T13:52:46.000Z,997.1
2022-12-08T13:53:59.000Z,996.9
2022-12-08T13:55:11.000Z,996.9
2022-12-08T13:56:07.689Z,996.9
2022-12-08T13:56:23.000Z,997
2022-12-08T13:57:35.000Z,997
2022-12-08T13:58:46.000Z,997
2022-12-08T13:59:58.000Z,997
2022-12-08T14:01:11.000Z,997
2022-12-08T14:02:23.000Z,997
2022-12-08T14:03:35.000Z,997
2022-12-08T14:04:47.000Z,997
2022-12-08T14:05:59.000Z,997
2022-12-08T14:07:12.000Z,997
2022-12-08T14:08:24.000Z,997
2022-12-08T14:09:36.000Z,997.1
2022-12-08T14:10:48.000Z,997
2022-12-08T14:12:00.000Z,997.1
2022-12-08T14:13:13.000Z,997
2022-12-08T14:14:24.000Z,997.1
2022-12-08T14:15:36.000Z,997
2022-12-08T14:16:48.000Z,997.1
2022-12-08T14:18:00.000Z,997.1
2022-12-08T14:19:12.000Z,997
2022-12-08T14:20:25.000Z,997.1
2022-12-08T14:21:37.000Z,997.1
2022-12-08T14:22:49.000Z,997.1
2022-12-08T14:24:01.000Z,997.1
2022-12-08T14:25:13.000Z,997.1
2022-12-08T14:26:26.000Z,997
2022-12-08T14:27:38.000Z,997
2022-12-08T14:28:50.000Z,997.1
2022-12-08T14:30:01.000Z,997.1
2022-12-08T14:31:13.000Z,997.1
2022-12-08T14:32:26.000Z,997.1
2022-12-08T14:33:38.000Z,997.1
2022-12-08T14:34:49.000Z,997.1
2022-12-08T14:36:01.000Z,997.1
2022-12-08T14:37:13.000Z,997.1
2022-12-08T14:38:25.000Z,997.1
2022-12-08T14:39:38.000Z,997.1
2022-12-08T14:40:50.000Z,997.1
2022-12-08T14:42:02.000Z,997.1
2022-12-08T14:43:14.000Z,997.1
2022-12-08T14:44:26.000Z,997.1
2022-12-08T14:45:39.000Z,997.1
2022-12-08T14:46:51.000Z,997.1
2022-12-08T14:48:03.000Z,997.2
2022-12-08T14:49:15.000Z,997.1
2022-12-08T14:50:26.000Z,997.2
2022-12-08T14:51:38.000Z,997.1
2022-12-08T14:52:51.000Z,997.2
2022-12-08T14:54:03.000Z,997.2
2022-12-08T14:55:15.000Z,997.2
2022-12-08T14:56:27.000Z,997.2
2022-12-08T14:57:39.000Z,997.2
2022-12-08T14:58:52.000Z,997.2
2022-12-08T15:00:04.000Z,997.1
2022-12-08T15:01:16.000Z,997.2
2022-12-08T15:02:28.000Z,997.2
2022-12-08T15:03:40.000Z,997.1
2022-12-08T15:04:53.000Z,997.1
2022-12-08T15:06:04.000Z,997.1
2022-12-08T15:07:16.000Z,997.1
2022-12-08T15:08:28.000Z,997.1
2022-12-08T15:09:40.000Z,997.2
2022-12-08T15:10:52.000Z,997.2
2022-12-08T15:12:05.000Z,997.2
2022-12-08T15:13:17.000Z,997.2
2022-12-08T15:14:29.000Z,997.3
2022-12-08T15:15:41.000Z,997.2
2022-12-08T15:18:06.000Z,997.3
2022-12-08T15:19:18.000Z,997.2
2022-12-08T15:20:30.000Z,997.3
2022-12-08T15:21:41.000Z,997.3
2022-12-08T15:22:53.000Z,997.3
2022-12-08T15:23:51.295Z,997.2
2022-12-08T15:24:05.000Z,997.3
2022-12-08T15:25:18.000Z,997.3
2022-12-08T15:26:30.000Z,997.3
2022-12-08T15:27:42.000Z,997.3
2022-12-08T15:28:54.000Z,997.4
2022-12-08T15:30:06.000Z,997.5